FW7021 Weather Reports


Display with metric or nautical units.
time (UTC)temp
F
wind
direction
speed
MPH
gust
MPH
rain 1hr
in
rain 24hr
in
rain mn
in
humidity
%
barometer
mb
20211208162644 35 218 1.0 1.0 0.00 0.00 0.00 71 1016.8
20211208162144 34 226 2.0 2.0 0.00 0.00 0.00 72 1016.9
20211208161643 34 179 1.0 1.0 0.00 0.00 0.00 71 1017.3
20211208161143 34 22 1.0 1.0 0.00 0.00 0.00 71 1017.3
20211208160643 34 135 1.0 2.0 0.00 0.00 0.00 72 1017.4
20211208160143 34 211 1.0 2.0 0.00 0.00 0.00 72 1017.5
20211208155643 34 7 3.0 3.0 0.00 0.00 0.00 72 1017.8
20211208155143 34 200 0.0 1.0 0.00 0.00 0.00 71 1018.0
20211208154643 34 169 0.0 1.0 0.00 0.00 0.00 71 1018.0
20211208154143 34 254 2.0 2.0 0.00 0.00 0.00 72 1018.4
20211208153643 34 223 1.0 1.0 0.00 0.00 0.00 73 1018.4
20211208153142 34 207 0.0 1.0 0.00 0.00 0.00 75 1018.5
20211208152641 34 213 1.0 1.0 0.00 0.00 0.00 74 1018.6
20211208152140 34 12 3.0 5.0 0.00 0.00 0.00 73 1018.6
20211208151640 34 208 1.0 1.0 0.00 0.00 0.00 73 1018.6
20211208151139 34 209 1.0 1.0 0.00 0.00 0.00 74 1018.7
20211208150640 34 206 1.0 1.0 0.00 0.00 0.00 75 1018.7
20211208150139 33 29 2.0 3.0 0.00 0.00 0.00 74 1018.9
20211208145639 33 202 3.0 3.0 0.00 0.00 0.00 74 1018.9
20211208145138 33 197 0.0 0.0 0.00 0.00 0.00 74 1018.8
20211208144638 33 148 1.0 1.0 0.00 0.00 0.00 75 1019.1
20211208144137 33 213 1.0 1.0 0.00 0.00 0.00 75 1019.1
20211208143637 33 213 1.0 1.0 0.00 0.00 0.00 76 1019.2
20211208143137 33 195 0.0 0.0 0.00 0.00 0.00 77 1019.4
20211208142636 32 357 1.0 1.0 0.00 0.00 0.00 78 1019.2
20211208142135 32 213 1.0 2.0 0.00 0.00 0.00 80 1019.3
20211208141635 32 307 3.0 3.0 0.00 0.00 0.00 81 1019.3
20211208141134 32 258 3.0 5.0 0.00 0.00 0.00 80 1019.2
20211208140633 33 29 5.0 7.0 0.00 0.00 0.00 78 1019.4
20211208140132 33 335 5.0 5.0 0.00 0.00 0.00 74 1019.5
20211208135632 33 37 3.0 3.0 0.00 0.00 0.00 71 1019.5
20211208135132 33 2 4.0 5.0 0.00 0.00 0.00 70 1019.3
20211208134630 33 205 1.0 2.0 0.00 0.00 0.00 69 1019.4
20211208134129 33 245 0.0 2.0 0.00 0.00 0.00 71 1019.3
20211208133628 33 203 1.0 1.0 0.00 0.00 0.00 69 1019.4
20211208133127 33 197 0.0 0.0 0.00 0.00 0.00 69 1019.7
20211208132626 33 223 1.0 1.0 0.00 0.00 0.00 68 1019.4
20211208132127 33 231 2.0 2.0 0.00 0.00 0.00 69 1019.6
20211208131625 33 216 1.0 2.0 0.00 0.00 0.00 70 1019.5
20211208131125 33 104 3.0 3.0 0.00 0.00 0.00 69 1019.6
20211208130625 33 284 1.0 2.0 0.00 0.00 0.00 69 1019.4
20211208130124 33 311 3.0 3.0 0.00 0.00 0.00 68 1019.4
20211208125623 32 190 1.0 1.0 0.00 0.00 0.00 69 1019.5
20211208125122 32 190 1.0 1.0 0.00 0.00 0.00 69 1019.4
20211208124622 32 179 1.0 1.0 0.00 0.00 0.00 69 1019.5
20211208124120 32 205 0.0 1.0 0.00 0.00 0.00 70 1019.8
20211208123619 32 200 0.0 1.0 0.00 0.00 0.00 71 1019.7
20211208123119 32 199 0.0 0.0 0.00 0.00 0.00 72 1019.6
20211208122619 32 200 0.0 0.0 0.00 0.00 0.00 72 1019.7
20211208122118 32 193 1.0 1.0 0.00 0.00 0.00 73 1019.7
20211208121618 32 200 1.0 2.0 0.00 0.00 0.00 69 1019.7
20211208121119 32 199 0.0 0.0 0.00 0.00 0.00 68 1019.9
20211208120617 32 206 0.0 0.0 0.00 0.00 0.00 69 1019.7
20211208120116 32 209 1.0 1.0 0.00 0.00 0.00 68 1019.6
20211208115616 32 208 1.0 1.0 0.00 0.00 0.00 68 1019.9
20211208115114 32 202 0.0 0.0 0.00 0.00 0.00 68 1019.7
20211208114614 32 209 1.0 1.0 0.00 0.00 0.00 69 1019.6
20211208114113 32 206 1.0 2.0 0.00 0.00 0.00 70 1019.6
20211208113612 32 199 0.0 0.0 0.00 0.00 0.00 72 1019.6
20211208113112 31 198 0.0 1.0 0.00 0.00 0.00 74 1019.6
20211208112610 31 193 0.0 0.0 0.00 0.00 0.00 77 1019.6
20211208112109 31 193 0.0 0.0 0.00 0.00 0.00 76 1019.8
20211208111609 30 193 0.0 0.0 0.00 0.00 0.00 80 1019.8
20211208111109 31 193 0.0 0.0 0.00 0.00 0.00 81 1020.1
20211208110608 31 193 0.0 0.0 0.00 0.00 0.00 80 1019.9
20211208110108 31 193 0.0 0.0 0.00 0.00 0.00 78 1020.2
20211208105608 30 193 0.0 0.0 0.00 0.00 0.00 79 1020.0
20211208105108 30 193 0.0 1.0 0.00 0.00 0.00 81 1020.0
20211208104608 30 193 0.0 0.0 0.00 0.00 0.00 81 1020.3
20211208104107 30 193 0.0 0.0 0.00 0.00 0.00 82 1020.3
20211208103605 30 193 0.0 0.0 0.00 0.00 0.00 84 1020.1
20211208103104 30 193 0.0 0.0 0.00 0.00 0.00 84 1020.1
20211208102603 30 193 0.0 0.0 0.00 0.00 0.00 85 1020.5
20211208102103 30 193 0.0 0.0 0.00 0.00 0.00 85 1020.1
20211208101602 30 193 0.0 0.0 0.00 0.00 0.00 85 1020.1
20211208101102 30 193 0.0 0.0 0.00 0.00 0.00 84 1020.4
20211208100601 30 193 1.0 1.0 0.00 0.00 0.00 82 1020.3
20211208100101 31 193 0.0 0.0 0.00 0.00 0.00 72 1020.5
20211208095600 31 193 0.0 0.0 0.00 0.00 0.00 72 1020.6
20211208095100 31 193 0.0 0.0 0.00 0.00 0.00 76 1020.5
20211208094600 31 193 0.0 0.0 0.00 0.00 0.00 76 1020.5
20211208094058 30 193 0.0 1.0 0.00 0.00 0.00 75 1020.2
20211208093557 30 192 0.0 0.0 0.00 0.00 0.00 76 1020.1
20211208093057 30 192 0.0 0.0 0.00 0.00 0.00 80 1020.3
20211208092556 30 192 0.0 0.0 0.00 0.00 0.00 82 1020.2
20211208092056 30 192 0.0 0.0 0.00 0.00 0.00 82 1020.0
20211208091555 31 192 0.0 0.0 0.00 0.00 0.00 80 1020.2
20211208091054 31 192 0.0 0.0 0.00 0.00 0.00 76 1020.3
20211208090554 31 192 0.0 0.0 0.00 0.00 0.00 71 1020.2
20211208090053 31 192 0.0 0.0 0.00 0.00 0.00 71 1020.2
20211208085551 31 191 0.0 0.0 0.00 0.00 0.00 73 1020.5
20211208085051 31 191 0.0 1.0 0.00 0.00 0.00 73 1020.2
20211208084550 31 192 1.0 1.0 0.00 0.00 0.00 75 1020.3
20211208084049 31 196 1.0 1.0 0.00 0.00 0.00 74 1020.4
20211208083549 31 196 0.0 0.0 0.00 0.00 0.00 76 1020.6
20211208083047 31 200 1.0 1.0 0.00 0.00 0.00 75 1020.5
20211208082546 31 202 0.0 1.0 0.00 0.00 0.00 75 1020.5
20211208082045 31 200 0.0 1.0 0.00 0.00 0.00 74 1020.7
20211208081545 31 201 0.0 0.0 0.00 0.00 0.00 75 1020.8
20211208081043 30 199 0.0 0.0 0.00 0.00 0.00 78 1021.1
20211208080541 31 199 1.0 1.0 0.00 0.00 0.00 75 1021.1
20211208080041 31 199 0.0 0.0 0.00 0.00 0.00 73 1020.9
20211208075540 31 200 0.0 0.0 0.00 0.00 0.00 73 1021.2
20211208075039 31 199 0.0 0.0 0.00 0.00 0.00 72 1021.3
20211208074536 30 199 0.0 0.0 0.00 0.00 0.00 74 1021.3
20211208074036 30 199 0.0 0.0 0.00 0.00 0.00 73 1021.5
20211208073534 31 199 0.0 0.0 0.00 0.00 0.00 75 1021.6
20211208073033 31 199 0.0 1.0 0.00 0.00 0.00 76 1021.5
20211208072530 30 199 0.0 0.0 0.00 0.00 0.00 76 1021.5
20211208072029 30 200 0.0 0.0 0.00 0.00 0.00 77 1021.4
20211208071528 30 200 0.0 0.0 0.00 0.00 0.00 77 1021.7
20211208071026 30 200 0.0 0.0 0.00 0.00 0.00 77 1021.6
20211208070525 31 200 0.0 0.0 0.00 0.00 0.00 76 1021.4
20211208070024 31 200 1.0 1.0 0.00 0.00 0.00 76 1021.5
20211208065524 31 200 0.0 1.0 0.00 0.00 0.00 73 1021.3
20211208065023 31 199 0.0 1.0 0.00 0.00 0.00 72 1021.2
20211208064523 31 199 0.0 0.0 0.00 0.00 0.00 72 1020.9
20211208064023 31 199 1.0 1.0 0.00 0.00 0.00 71 1020.8
20211208063523 31 199 0.0 1.0 0.00 0.00 0.00 68 1021.3
20211208063021 31 199 0.0 0.0 0.00 0.00 0.00 70 1021.2
20211208062521 31 199 0.0 0.0 0.00 0.00 0.00 72 1021.4
20211208062020 31 199 0.0 0.0 0.00 0.00 0.00 72 1020.9
20211208061520 31 199 0.0 1.0 0.00 0.00 0.00 73 1020.8
20211208061018 31 199 0.0 0.0 0.00 0.00 0.00 72 1020.9
20211208060518 30 199 0.0 0.0 0.00 0.00 0.00 74 1020.9
20211208060018 30 199 0.0 1.0 0.00 0.00 0.00 75 1021.1
20211208055517 30 199 0.0 0.0 0.00 0.00 0.00 76 1021.1
20211208055017 30 199 0.0 0.0 0.00 0.00 0.00 80 1021.3
20211208054517 30 199 0.0 0.0 0.00 0.00 0.00 79 1021.3
20211208054015 30 199 0.0 0.0 0.00 0.00 0.00 79 1021.7
20211208053514 30 205 1.0 2.0 0.00 0.00 0.00 78 1021.3
20211208053012 30 202 2.0 2.0 0.00 0.00 0.00 79 1021.4
20211208052511 31 196 1.0 1.0 0.00 0.00 0.00 79 1021.4
20211208052010 31 196 0.0 1.0 0.00 0.00 0.00 78 1021.7
20211208051510 31 196 1.0 1.0 0.00 0.00 0.00 76 1021.9
20211208051010 31 196 1.0 1.0 0.00 0.00 0.00 76 1022.0
20211208050508 31 196 1.0 1.0 0.00 0.00 0.00 74 1022.1
20211208050006 32 196 0.0 0.0 0.00 0.00 0.00 74 1022.3
20211208045506 32 196 0.0 1.0 0.00 0.00 0.00 72 1022.4
20211208045005 31 196 0.0 0.0 0.00 0.00 0.00 73 1022.6
20211208044505 31 196 0.0 0.0 0.00 0.00 0.00 70 1022.6
20211208044004 31 196 0.0 0.0 0.00 0.00 0.00 71 1022.9
20211208043504 31 196 0.0 0.0 0.00 0.00 0.00 71 1022.9
20211208043004 31 196 0.0 0.0 0.00 0.00 0.00 71 1022.9
20211208042503 31 196 0.0 0.0 0.00 0.00 0.00 72 1023.0
20211208042003 31 196 0.0 0.0 0.00 0.00 0.00 71 1022.7
20211208041503 31 196 0.0 0.0 0.00 0.00 0.00 72 1023.0
20211208041003 31 196 0.0 0.0 0.00 0.00 0.00 70 1022.9
20211208040501 31 196 0.0 0.0 0.00 0.00 0.00 70 1023.1
20211208040001 31 196 0.0 0.0 0.00 0.00 0.00 69 1023.2
20211208035501 31 196 0.0 0.0 0.00 0.00 0.00 70 1022.9
20211208034959 31 196 0.0 0.0 0.00 0.00 0.00 71 1023.3
20211208034458 31 196 0.0 0.0 0.00 0.00 0.00 71 1023.0
20211208033957 31 196 0.0 0.0 0.00 0.00 0.00 71 1023.1
20211208033456 31 196 0.0 0.0 0.00 0.00 0.00 70 1023.2
20211208032955 31 196 0.0 0.0 0.00 0.00 0.00 70 1023.1
20211208032454 31 196 0.0 0.0 0.00 0.00 0.00 71 1022.9
20211208031953 31 196 0.0 0.0 0.00 0.00 0.00 71 1023.1
20211208031451 31 196 0.0 0.0 0.00 0.00 0.00 73 1023.0
20211208030951 31 196 0.0 0.0 0.00 0.00 0.00 70 1023.2
20211208030450 31 196 0.0 0.0 0.00 0.00 0.00 70 1023.2
20211208025950 31 196 0.0 0.0 0.00 0.00 0.00 71 1023.0
20211208025449 31 196 0.0 0.0 0.00 0.00 0.00 71 1023.1
20211208024948 31 196 0.0 0.0 0.00 0.00 0.00 74 1022.8
20211208024448 31 196 0.0 0.0 0.00 0.00 0.00 75 1023.1
20211208023948 31 196 0.0 1.0 0.00 0.00 0.00 76 1022.7
20211208023447 31 196 1.0 1.0 0.00 0.00 0.00 75 1023.1
20211208022947 31 196 1.0 1.0 0.00 0.00 0.00 76 1023.4
20211208022445 31 196 1.0 1.0 0.00 0.00 0.00 76 1023.3
20211208021945 31 198 0.0 0.0 0.00 0.00 0.00 73 1023.3
20211208021443 31 198 0.0 1.0 0.00 0.00 0.00 71 1023.3
20211208020943 32 177 0.0 0.0 0.00 0.00 0.00 71 1023.5
20211208020442 31 177 0.0 0.0 0.00 0.00 0.00 69 1023.5
20211208015942 31 177 0.0 0.0 0.00 0.00 0.00 68 1023.4
20211208015441 31 177 0.0 0.0 0.00 0.00 0.00 69 1023.3
20211208014939 31 177 0.0 0.0 0.00 0.00 0.00 71 1023.4
20211208014439 31 177 0.0 0.0 0.00 0.00 0.00 69 1023.5
20211208013939 31 177 0.0 0.0 0.00 0.00 0.00 71 1023.4
20211208013439 31 177 0.0 0.0 0.00 0.00 0.00 72 1023.6
20211208012937 31 177 0.0 0.0 0.00 0.00 0.00 72 1023.6
20211208012435 31 177 0.0 0.0 0.00 0.00 0.00 73 1023.7
20211208011934 31 177 0.0 0.0 0.00 0.00 0.00 70 1023.7
20211208011432 31 177 0.0 0.0 0.00 0.00 0.00 70 1023.7
20211208010932 31 177 0.0 0.0 0.00 0.00 0.00 69 1023.6
20211208010431 32 177 0.0 0.0 0.00 0.00 0.00 70 1023.8
20211208005929 32 177 0.0 0.0 0.00 0.00 0.00 69 1023.7
20211208005427 31 177 0.0 0.0 0.00 0.00 0.00 69 1023.8
20211208004927 31 177 0.0 0.0 0.00 0.00 0.00 70 1023.5
20211208004427 31 177 0.0 0.0 0.00 0.00 0.00 70 1023.8
20211208003926 31 177 0.0 0.0 0.00 0.00 0.00 70 1023.7
20211208003425 31 177 0.0 0.0 0.00 0.00 0.00 70 1023.8
20211208002924 31 177 0.0 0.0 0.00 0.00 0.00 70 1023.6
20211208002424 31 177 0.0 0.0 0.00 0.00 0.00 69 1023.6
20211208001923 32 177 0.0 0.0 0.00 0.00 0.00 69 1023.8
20211208001421 32 177 0.0 0.0 0.00 0.00 0.00 70 1024.1
20211208000920 32 177 0.0 0.0 0.00 0.00 0.00 68 1023.9
20211208000416 32 177 0.0 0.0 0.00 0.00 0.00 69 1023.6
20211207235916 32 177 0.0 0.0 0.00 0.00 0.00 68 1023.7
20211207235344 32 177 0.0 0.0 0.00 0.00 0.00 67 1023.5
20211207234843 32 177 0.0 0.0 0.00 0.00 0.00 66 1023.5
20211207234342 32 177 0.0 0.0 0.00 0.00 0.00 66 1023.5
20211207233841 32 177 0.0 0.0 0.00 0.00 0.00 67 1023.6
20211207233341 32 177 0.0 0.0 0.00 0.00 0.00 67 1023.4
20211207232841 32 177 0.0 0.0 0.00 0.00 0.00 68 1023.8
20211207232340 32 177 0.0 0.0 0.00 0.00 0.00 68 1023.6
20211207231840 32 177 0.0 0.0 0.00 0.00 0.00 69 1023.5
20211207231340 32 177 0.0 0.0 0.00 0.00 0.00 68 1023.5
20211207230839 32 177 0.0 0.0 0.00 0.00 0.00 67 1023.4
20211207230339 32 177 0.0 0.0 0.00 0.00 0.00 68 1023.5
20211207225837 32 177 0.0 0.0 0.00 0.00 0.00 67 1023.4
20211207225335 32 177 0.0 0.0 0.00 0.00 0.00 68 1023.3
20211207224835 32 177 0.0 0.0 0.00 0.00 0.00 68 1023.6
20211207224335 32 177 0.0 0.0 0.00 0.00 0.00 67 1023.6
20211207223835 32 177 0.0 0.0 0.00 0.00 0.00 68 1023.3
20211207223334 32 177 0.0 0.0 0.00 0.00 0.00 69 1023.4
20211207222834 32 177 0.0 0.0 0.00 0.00 0.00 69 1023.5
20211207222334 31 176 0.0 0.0 0.00 0.00 0.00 69 1023.4
20211207221833 31 176 0.0 0.0 0.00 0.00 0.00 67 1023.5
20211207221333 32 176 0.0 0.0 0.00 0.00 0.00 66 1023.2
20211207220832 32 176 0.0 0.0 0.00 0.00 0.00 66 1023.4
20211207220332 32 176 0.0 0.0 0.00 0.00 0.00 65 1023.1
20211207215830 32 176 0.0 0.0 0.00 0.00 0.00 65 1023.2
20211207215326 33 176 0.0 0.0 0.00 0.00 0.00 64 1023.2
20211207214825 33 176 0.0 0.0 0.00 0.00 0.00 64 1023.3
20211207214324 33 176 0.0 0.0 0.00 0.00 0.00 64 1023.3
20211207213822 33 176 0.0 0.0 0.00 0.00 0.00 63 1023.3
20211207213322 34 176 0.0 0.0 0.00 0.00 0.00 62 1023.4
20211207212822 34 176 0.0 0.0 0.00 0.00 0.00 62 1023.6
20211207212321 34 176 0.0 0.0 0.00 0.00 0.00 62 1023.2
20211207211820 34 175 0.0 0.0 0.00 0.00 0.00 60 1023.2
20211207211319 34 177 0.0 0.0 0.00 0.00 0.00 61 1023.6
20211207210819 34 179 1.0 1.0 0.00 0.00 0.00 60 1023.5
20211207210320 35 178 1.0 1.0 0.00 0.00 0.00 60 1023.8
20211207205819 35 177 1.0 1.0 0.00 0.00 0.00 59 1023.6
20211207205317 35 175 1.0 1.0 0.00 0.00 0.00 60 1023.5
20211207204816 36 179 1.0 1.0 0.00 0.00 0.00 60 1023.4
20211207204315 36 123 1.0 2.0 0.00 0.00 0.00 57 1023.6
20211207203815 36 170 0.0 0.0 0.00 0.00 0.00 59 1023.9
20211207203314 36 169 0.0 1.0 0.00 0.00 0.00 57 1023.7
20211207202812 37 179 1.0 2.0 0.00 0.00 0.00 58 1023.5
20211207202312 36 147 2.0 3.0 0.00 0.00 0.00 58 1023.4
20211207201811 36 165 1.0 1.0 0.00 0.00 0.00 58 1023.1
20211207201309 36 131 1.0 2.0 0.00 0.00 0.00 58 1023.3
20211207200809 36 177 0.0 1.0 0.00 0.00 0.00 57 1023.4
20211207200306 36 164 2.0 2.0 0.00 0.00 0.00 59 1023.6
20211207195805 36 181 1.0 1.0 0.00 0.00 0.00 58 1023.6
20211207195306 36 189 2.0 2.0 0.00 0.00 0.00 58 1023.2
20211207194804 37 164 3.0 5.0 0.00 0.00 0.00 59 1023.5
20211207194304 37 175 2.0 3.0 0.00 0.00 0.00 58 1023.4
20211207193802 37 130 2.0 3.0 0.00 0.00 0.00 58 1023.4
20211207193259 37 175 2.0 3.0 0.00 0.00 0.00 58 1023.3
20211207192759 37 154 2.0 2.0 0.00 0.00 0.00 56 1023.4
20211207192255 37 135 2.0 3.0 0.00 0.00 0.00 58 1023.6
20211207191753 36 170 1.0 1.0 0.00 0.00 0.00 59 1023.4
20211207191246 37 149 2.0 2.0 0.00 0.00 0.00 57 1023.4
20211207190719 36 175 0.0 0.0 0.00 0.00 0.00 59 1023.2
20211207190202 37 179 0.0 0.0 0.00 0.00 0.00 58 1023.2
20211207185702 37 171 1.0 1.0 0.00 0.00 0.00 58 1023.1
20211207185200 37 178 1.0 1.0 0.00 0.00 0.00 59 1023.2
20211207184658 36 188 0.0 1.0 0.00 0.00 0.00 60 1023.6
20211207184158 37 157 1.0 2.0 0.00 0.00 0.00 60 1023.5
20211207183659 37 151 2.0 3.0 0.00 0.00 0.00 58 1023.5
20211207183158 37 142 2.0 2.0 0.00 0.00 0.00 60 1023.6
20211207182658 38 129 1.0 1.0 0.00 0.00 0.00 60 1023.7
20211207182158 37 188 0.0 1.0 0.00 0.00 0.00 60 1023.5
20211207181656 38 57 5.0 7.0 0.00 0.00 0.00 60 1023.5
20211207181156 36 128 2.0 2.0 0.00 0.00 0.00 61 1023.5
20211207180656 36 90 3.0 3.0 0.00 0.00 0.00 60 1023.9
20211207180156 36 160 3.0 5.0 0.00 0.00 0.00 62 1023.7
20211207175655 37 129 2.0 2.0 0.00 0.00 0.00 61 1024.0
20211207175154 36 107 6.0 9.0 0.00 0.00 0.00 61 1024.2
20211207174652 36 112 3.0 5.0 0.00 0.00 0.00 60 1023.9
20211207174151 37 113 1.0 2.0 0.00 0.00 0.00 62 1024.3
20211207173651 37 153 3.0 3.0 0.00 0.00 0.00 59 1024.3
20211207173149 36 147 1.0 1.0 0.00 0.00 0.00 61 1024.2
20211207172648 36 178 3.0 3.0 0.00 0.00 0.00 61 1024.5
20211207172145 36 182 3.0 5.0 0.00 0.00 0.00 60 1024.4
20211207171603 36 167 2.0 3.0 0.00 0.00 0.00 60 1024.3
20211207171102 36 156 3.0 3.0 0.00 0.00 0.00 62 1024.5
20211207170602 36 110 2.0 3.0 0.00 0.00 0.00 59 1024.5
20211207170102 36 158 1.0 2.0 0.00 0.00 0.00 61 1024.3
20211207165602 35 111 4.0 8.0 0.00 0.00 0.00 61 1024.4
20211207165102 35 157 1.0 1.0 0.00 0.00 0.00 61 1024.4
20211207164600 35 147 2.0 2.0 0.00 0.00 0.00 63 1024.4
20211207164059 35 116 3.0 3.0 0.00 0.00 0.00 60 1024.3
20211207163558 36 87 2.0 2.0 0.00 0.00 0.00 63 1024.2
20211207163056 35 141 2.0 2.0 0.00 0.00 0.00 63 1024.6